createdAt,value
2022-09-11T00:01:18.433Z,5.00
2022-09-11T00:03:48.039Z,6.00
2022-09-11T00:06:27.713Z,6.20
2022-09-11T00:08:58.136Z,8.00
2022-09-11T00:11:26.090Z,6.00
2022-09-11T00:13:54.305Z,7.00
2022-09-11T00:16:23.357Z,7.00
2022-09-11T00:18:52.725Z,7.20
2022-09-11T00:21:20.789Z,7.40
2022-09-11T00:23:49.844Z,7.00
2022-09-11T00:26:17.989Z,7.00
2022-09-11T00:28:46.346Z,8.00
2022-09-11T00:31:15.810Z,11.20
2022-09-11T00:33:44.670Z,8.00
2022-09-11T00:36:15.795Z,9.00
2022-09-11T00:38:43.931Z,9.00
2022-09-11T00:41:13.811Z,8.60
2022-09-11T00:43:59.626Z,8.20
2022-09-11T00:46:35.227Z,8.25
2022-09-11T00:49:05.101Z,9.60
2022-09-11T00:51:35.023Z,8.00
2022-09-11T00:54:02.999Z,10.00
2022-09-11T00:56:31.725Z,12.20
2022-09-11T00:58:59.755Z,13.00
2022-09-11T01:01:27.708Z,13.00
2022-09-11T01:03:56.256Z,11.00
2022-09-11T01:06:24.487Z,12.00
2022-09-11T01:08:53.807Z,15.00
2022-09-11T01:11:28.116Z,16.00
2022-09-11T01:14:03.615Z,18.40
2022-09-11T01:16:34.806Z,17.00
2022-09-11T01:19:06.348Z,17.75
2022-09-11T01:22:00.517Z,16.20
2022-09-11T01:24:56.550Z,14.80
2022-09-11T01:27:44.745Z,17.00
2022-09-11T01:30:13.934Z,17.00
2022-09-11T01:33:01.915Z,18.40
2022-09-11T01:35:36.230Z,18.75
2022-09-11T01:38:07.150Z,20.20
2022-09-11T01:40:39.474Z,17.60
2022-09-11T01:43:12.467Z,24.60
2022-09-11T01:45:40.928Z,22.75
2022-09-11T01:48:09.108Z,21.75
2022-09-11T01:50:38.283Z,22.00
2022-09-11T01:53:06.755Z,19.00
2022-09-11T01:55:37.859Z,21.00
2022-09-11T01:58:09.335Z,20.00
2022-09-11T02:00:42.017Z,22.40
2022-09-11T02:03:14.343Z,20.60
2022-09-11T02:05:45.869Z,19.20
2022-09-11T02:08:21.736Z,21.50
2022-09-11T02:10:52.308Z,17.40
2022-09-11T02:13:27.610Z,20.00
2022-09-11T02:15:57.773Z,18.40
2022-09-11T02:18:27.872Z,21.50
2022-09-11T02:20:55.871Z,21.40
2022-09-11T02:23:23.899Z,18.00
2022-09-11T02:25:53.798Z,22.25
2022-09-11T02:28:23.183Z,19.60
2022-09-11T02:30:51.639Z,23.00
2022-09-11T02:33:29.866Z,20.00
2022-09-11T02:36:04.100Z,26.50
2022-09-11T02:38:34.367Z,26.60
2022-09-11T02:41:04.151Z,23.00
2022-09-11T02:43:43.772Z,24.25
2022-09-11T02:46:34.479Z,22.50
2022-09-11T02:49:08.074Z,20.75
2022-09-11T02:51:39.397Z,23.00
2022-09-11T02:54:10.868Z,23.75
2022-09-11T02:56:42.384Z,26.20
2022-09-11T02:59:17.384Z,26.00
2022-09-11T03:01:48.507Z,24.00
2022-09-11T03:04:18.342Z,27.20
2022-09-11T03:06:48.585Z,26.75
2022-09-11T03:09:16.859Z,25.60
2022-09-11T03:11:45.755Z,27.00
2022-09-11T03:14:15.395Z,28.25
2022-09-11T03:16:44.022Z,27.00
2022-09-11T03:19:13.170Z,22.50
2022-09-11T03:21:41.218Z,28.00
2022-09-11T03:24:09.724Z,25.50
2022-09-11T03:26:38.629Z,23.75
2022-09-11T03:29:08.556Z,29.20
2022-09-11T03:31:39.391Z,24.00
2022-09-11T03:34:08.953Z,27.00
2022-09-11T03:36:37.053Z,31.60
2022-09-11T03:39:06.567Z,26.00
2022-09-11T03:41:34.568Z,27.25
2022-09-11T03:44:02.647Z,29.00
2022-09-11T03:46:33.032Z,30.00
2022-09-11T03:49:02.922Z,28.50
2022-09-11T03:51:32.315Z,27.75
2022-09-11T03:54:01.659Z,25.00
2022-09-11T03:56:31.171Z,28.75
2022-09-11T03:59:00.271Z,25.00
2022-09-11T04:01:29.051Z,31.00
2022-09-11T04:03:57.593Z,29.50
2022-09-11T04:06:35.228Z,28.75
2022-09-11T04:09:04.863Z,23.60
2022-09-11T04:11:37.249Z,29.00
2022-09-11T04:14:07.172Z,24.20
2022-09-11T04:16:36.767Z,25.40
2022-09-11T04:19:05.200Z,23.00
2022-09-11T04:21:35.418Z,24.50
2022-09-11T04:24:03.686Z,21.50
2022-09-11T04:26:32.664Z,24.40
2022-09-11T04:29:08.429Z,24.00
2022-09-11T04:31:36.956Z,23.80
2022-09-11T04:34:05.255Z,22.75
2022-09-11T04:36:37.930Z,22.75
2022-09-11T04:39:07.030Z,24.00
2022-09-11T04:41:35.522Z,20.50
2022-09-11T04:44:05.485Z,24.00
2022-09-11T04:46:39.083Z,20.20
2022-09-11T04:49:10.860Z,20.75
2022-09-11T04:51:40.903Z,25.40
2022-09-11T04:54:12.567Z,23.40
2022-09-11T04:56:40.598Z,23.50
2022-09-11T04:59:13.895Z,26.50
2022-09-11T05:01:44.624Z,23.60
2022-09-11T05:04:13.025Z,20.33
2022-09-11T05:06:48.245Z,21.00
2022-09-11T05:09:18.271Z,23.00
2022-09-11T05:11:48.195Z,26.00
2022-09-11T05:14:18.503Z,22.00
2022-09-11T05:16:48.920Z,22.20
2022-09-11T05:19:20.083Z,22.00
2022-09-11T05:21:49.760Z,22.60
2022-09-11T05:24:17.833Z,23.50
2022-09-11T05:26:45.916Z,24.50
2022-09-11T05:29:16.421Z,21.00
2022-09-11T05:31:49.962Z,27.00
2022-09-11T05:34:22.287Z,22.60
2022-09-11T05:36:53.024Z,24.80
2022-09-11T05:39:21.087Z,24.00
2022-09-11T05:41:51.483Z,29.80
2022-09-11T05:44:19.549Z,23.00
2022-09-11T05:46:48.504Z,22.00
2022-09-11T05:49:16.957Z,22.80
2022-09-11T05:51:45.259Z,27.40
2022-09-11T05:54:15.280Z,26.80
2022-09-11T05:56:43.371Z,29.00
2022-09-11T05:59:17.543Z,24.25
2022-09-11T06:01:49.642Z,26.75
2022-09-11T06:04:31.437Z,25.50
2022-09-11T06:07:00.765Z,26.20
2022-09-11T06:09:31.371Z,22.20
2022-09-11T06:11:59.457Z,30.25
2022-09-11T06:14:27.926Z,29.25
2022-09-11T06:16:56.667Z,30.50
2022-09-11T06:19:26.055Z,23.60
2022-09-11T06:21:54.331Z,22.75
2022-09-11T06:24:35.683Z,25.60
2022-09-11T06:27:03.836Z,28.00
2022-09-11T06:29:32.625Z,26.60
2022-09-11T06:32:01.967Z,26.00
2022-09-11T06:34:31.682Z,28.20
2022-09-11T06:37:03.060Z,26.25
2022-09-11T06:39:34.177Z,25.00
2022-09-11T06:42:03.694Z,29.25
2022-09-11T06:44:35.799Z,27.60
2022-09-11T06:47:05.723Z,28.50
2022-09-11T06:49:36.319Z,31.75
2022-09-11T06:52:22.797Z,27.00
2022-09-11T06:55:03.619Z,28.00
2022-09-11T06:57:33.619Z,27.20
2022-09-11T07:00:01.613Z,25.40
2022-09-11T07:02:34.972Z,30.00
2022-09-11T07:05:03.074Z,23.00
2022-09-11T07:07:31.286Z,23.40
2022-09-11T07:10:01.173Z,28.00
2022-09-11T07:12:29.372Z,29.00
2022-09-11T07:15:00.119Z,23.60
2022-09-11T07:17:28.335Z,25.40
2022-09-11T07:19:56.333Z,27.00
2022-09-11T07:22:24.569Z,28.50
2022-09-11T07:24:54.983Z,23.40
2022-09-11T07:27:23.186Z,29.00
2022-09-11T07:29:51.212Z,24.00
2022-09-11T07:32:20.603Z,26.00
2022-09-11T07:34:49.442Z,25.50
2022-09-11T07:37:17.507Z,26.50
2022-09-11T07:39:47.127Z,22.40
2022-09-11T07:42:24.172Z,21.00
2022-09-11T07:44:52.643Z,26.40
2022-09-11T07:47:22.141Z,25.00
2022-09-11T07:49:53.005Z,25.60
2022-09-11T07:52:21.341Z,22.80
2022-09-11T07:54:53.091Z,22.00
2022-09-11T07:57:24.952Z,24.75
2022-09-11T07:59:53.543Z,25.00
2022-09-11T08:02:23.593Z,27.50
2022-09-11T08:04:51.726Z,24.00
2022-09-11T08:07:23.189Z,22.50
2022-09-11T08:10:10.153Z,22.00
2022-09-11T08:12:39.996Z,27.00
2022-09-11T08:15:08.970Z,21.50
2022-09-11T08:17:38.310Z,21.00
2022-09-11T08:20:07.208Z,20.00
2022-09-11T08:22:35.208Z,22.00
2022-09-11T08:25:03.279Z,17.50
2022-09-11T08:27:32.171Z,17.67
2022-09-11T08:30:00.237Z,21.00
2022-09-11T08:32:29.383Z,19.40
2022-09-11T08:34:59.410Z,18.50
2022-09-11T08:37:27.407Z,23.00
2022-09-11T08:39:55.954Z,14.20
2022-09-11T08:42:26.339Z,17.00
2022-09-11T08:44:55.218Z,20.00
2022-09-11T08:47:34.888Z,16.40
2022-09-11T08:50:07.090Z,17.60
2022-09-11T08:52:35.947Z,16.80
2022-09-11T08:55:04.201Z,16.00
2022-09-11T08:57:37.832Z,15.00
2022-09-11T09:00:10.770Z,16.40
2022-09-11T09:02:56.303Z,14.60
2022-09-11T09:05:31.620Z,14.40
2022-09-11T09:08:07.138Z,17.00
2022-09-11T09:10:42.831Z,14.00
2022-09-11T09:13:16.563Z,13.80
2022-09-11T09:15:48.169Z,14.00
2022-09-11T09:18:23.796Z,14.25
2022-09-11T09:21:01.970Z,12.00
2022-09-11T09:23:33.311Z,13.60
2022-09-11T09:26:01.619Z,14.00
2022-09-11T09:28:33.716Z,13.60
2022-09-11T09:31:03.933Z,12.75
2022-09-11T09:33:35.294Z,15.00
2022-09-11T09:36:15.019Z,12.00
2022-09-11T09:38:43.110Z,11.00
2022-09-11T09:41:39.015Z,13.00
2022-09-11T09:44:09.286Z,12.25
2022-09-11T09:46:40.268Z,12.50
2022-09-11T09:49:09.107Z,13.00
2022-09-11T09:51:39.809Z,11.50
2022-09-11T09:54:08.996Z,13.00
2022-09-11T09:56:37.747Z,11.00
2022-09-11T09:59:14.702Z,11.00
2022-09-11T10:01:47.849Z,14.25
2022-09-11T10:04:19.187Z,8.40
2022-09-11T10:06:49.803Z,11.00
2022-09-11T10:09:30.991Z,11.20
2022-09-11T10:12:02.534Z,8.00
2022-09-11T10:14:50.597Z,8.00
2022-09-11T10:17:23.534Z,7.00
2022-09-11T10:19:52.043Z,6.50
2022-09-11T10:22:29.535Z,7.40
2022-09-11T10:25:10.694Z,7.00
2022-09-11T10:27:43.952Z,8.60
2022-09-11T10:30:37.258Z,5.50
2022-09-11T10:33:07.274Z,7.75
2022-09-11T10:35:36.094Z,7.00
2022-09-11T10:38:17.932Z,9.00
2022-09-11T10:40:57.400Z,7.50
2022-09-11T10:43:27.264Z,7.00
2022-09-11T10:46:06.361Z,9.25
2022-09-11T10:48:34.597Z,5.25
2022-09-11T10:51:06.396Z,6.60
2022-09-11T10:53:38.828Z,7.80
2022-09-11T10:56:07.093Z,8.00
2022-09-11T10:58:36.812Z,8.60
2022-09-11T11:01:04.867Z,7.00
2022-09-11T11:03:32.931Z,8.40
2022-09-11T11:06:06.411Z,8.00
2022-09-11T11:08:58.774Z,8.20
2022-09-11T11:11:34.567Z,7.00
2022-09-11T11:14:11.499Z,8.00
2022-09-11T11:16:45.701Z,9.00
2022-09-11T11:19:23.178Z,9.00
2022-09-11T11:21:55.663Z,9.00
2022-09-11T11:24:33.100Z,10.25
2022-09-11T11:27:20.766Z,9.00
2022-09-11T11:29:57.496Z,10.00
2022-09-11T11:32:31.660Z,8.00
2022-09-11T11:35:10.134Z,8.50
2022-09-11T11:37:41.479Z,9.00
2022-09-11T11:40:15.913Z,8.20
2022-09-11T11:42:46.847Z,7.00
2022-09-11T11:45:20.368Z,9.00
2022-09-11T11:47:48.791Z,9.00
2022-09-11T11:50:27.404Z,11.75
2022-09-11T11:53:01.087Z,6.50
2022-09-11T11:55:35.915Z,7.00
2022-09-11T11:58:07.112Z,7.75
2022-09-11T12:00:38.211Z,9.50
2022-09-11T12:03:10.157Z,8.60
2022-09-11T12:05:38.249Z,9.00
2022-09-11T12:08:06.431Z,7.00
2022-09-11T12:10:38.019Z,8.00
2022-09-11T12:13:07.689Z,7.80
2022-09-11T12:15:36.798Z,6.25
2022-09-11T12:18:06.941Z,6.00
2022-09-11T12:20:40.707Z,9.75
2022-09-11T12:23:26.656Z,6.00
2022-09-11T12:26:18.807Z,7.00
2022-09-11T12:28:47.286Z,5.40
2022-09-11T12:31:15.504Z,7.75
2022-09-11T12:33:54.662Z,6.00
2022-09-11T12:36:36.177Z,6.00
2022-09-11T12:39:06.583Z,6.33
2022-09-11T12:41:36.503Z,3.80
2022-09-11T12:44:04.935Z,4.00
2022-09-11T12:47:08.926Z,4.00
2022-09-11T12:49:37.614Z,4.60
2022-09-11T12:52:05.766Z,5.80
2022-09-11T12:54:35.110Z,4.50
2022-09-11T12:57:06.223Z,5.00
2022-09-11T12:59:35.897Z,5.00
2022-09-11T13:02:03.970Z,4.50
2022-09-11T13:04:32.215Z,6.00
2022-09-11T13:07:02.521Z,5.00
2022-09-11T13:09:31.707Z,4.00
2022-09-11T13:12:38.152Z,4.00
2022-09-11T13:15:41.120Z,4.20
2022-09-11T13:18:31.211Z,5.00
2022-09-11T13:21:00.756Z,6.00
2022-09-11T13:23:29.375Z,5.00
2022-09-11T13:25:58.204Z,4.00
2022-09-11T13:28:27.533Z,4.80
2022-09-11T13:31:00.539Z,5.00
2022-09-11T13:33:29.158Z,4.60
2022-09-11T13:35:58.157Z,4.00
2022-09-11T13:38:27.231Z,5.00
2022-09-11T13:40:58.103Z,4.00
2022-09-11T13:43:29.807Z,5.00
2022-09-11T13:46:26.016Z,6.00
2022-09-11T13:49:00.273Z,5.00
2022-09-11T13:51:31.332Z,5.50
2022-09-11T13:54:05.974Z,5.75
2022-09-11T13:56:41.567Z,5.00
2022-09-11T13:59:46.304Z,4.00
2022-09-11T14:02:46.527Z,4.00
2022-09-11T14:05:16.922Z,6.00
2022-09-11T14:07:59.223Z,3.00
2022-09-11T14:10:31.917Z,3.50
2022-09-11T14:13:10.748Z,4.00
2022-09-11T14:15:41.059Z,5.00
2022-09-11T14:18:14.621Z,3.50
2022-09-11T14:20:43.841Z,2.75
2022-09-11T14:23:16.647Z,3.00
2022-09-11T14:26:08.225Z,3.00
2022-09-11T14:28:37.688Z,3.00
2022-09-11T14:31:07.678Z,3.00
2022-09-11T14:33:37.087Z,3.00
2022-09-11T14:36:07.927Z,3.00
2022-09-11T14:38:36.304Z,2.25
2022-09-11T14:41:04.610Z,2.60
2022-09-11T14:43:33.658Z,3.00
2022-09-11T14:46:02.160Z,2.60
2022-09-11T14:48:30.920Z,3.00
2022-09-11T14:51:00.374Z,4.00
2022-09-11T14:53:29.959Z,2.80
2022-09-11T14:55:58.950Z,3.00
2022-09-11T14:58:27.121Z,3.40
2022-09-11T15:00:55.216Z,2.40
2022-09-11T15:03:24.536Z,1.33
2022-09-11T15:05:55.510Z,3.25
2022-09-11T15:08:24.979Z,2.00
2022-09-11T15:10:53.694Z,3.00
2022-09-11T15:13:22.018Z,2.60
2022-09-11T15:15:52.427Z,2.33
2022-09-11T15:18:20.491Z,3.00
2022-09-11T15:20:48.475Z,1.80
2022-09-11T15:23:16.604Z,3.00
2022-09-11T15:25:45.948Z,3.00
2022-09-11T15:28:14.253Z,3.60
2022-09-11T15:30:42.878Z,2.80
2022-09-11T15:33:10.931Z,4.00
2022-09-11T15:35:38.919Z,3.00
2022-09-11T15:38:07.252Z,2.00
2022-09-11T15:40:36.439Z,2.00
2022-09-11T15:43:05.824Z,1.60
2022-09-11T15:45:34.359Z,2.00
2022-09-11T15:48:02.872Z,3.00
2022-09-11T15:50:30.996Z,3.00
2022-09-11T15:52:59.020Z,3.00
2022-09-11T15:55:30.214Z,3.40
2022-09-11T15:57:58.789Z,2.40
2022-09-11T16:00:28.123Z,3.00
2022-09-11T16:02:56.342Z,1.00
2022-09-11T16:05:24.313Z,3.00
2022-09-11T16:07:52.961Z,2.00
2022-09-11T16:10:21.033Z,2.00
2022-09-11T16:12:49.279Z,1.40
2022-09-11T16:15:18.228Z,2.60
2022-09-11T16:17:48.433Z,2.00
2022-09-11T16:20:16.479Z,2.00
2022-09-11T16:22:45.174Z,2.00
2022-09-11T16:25:13.452Z,2.00
2022-09-11T16:27:41.598Z,2.00
2022-09-11T16:30:42.664Z,2.00
2022-09-11T16:33:02.352Z,2.33
2022-09-11T16:35:32.177Z,2.60
2022-09-11T16:38:00.969Z,3.00
2022-09-11T16:40:28.960Z,2.00
2022-09-11T16:42:56.975Z,3.00
2022-09-11T16:45:25.261Z,2.50
2022-09-11T16:47:53.600Z,2.00
2022-09-11T16:50:24.323Z,2.00
2022-09-11T16:52:52.515Z,1.60
2022-09-11T16:55:21.246Z,2.00
2022-09-11T16:57:49.246Z,2.00
2022-09-11T17:00:17.388Z,2.00
2022-09-11T17:02:45.493Z,3.00
2022-09-11T17:05:14.041Z,2.00
2022-09-11T17:07:43.405Z,2.00
2022-09-11T17:10:11.760Z,2.00
2022-09-11T17:12:39.773Z,2.20
2022-09-11T17:15:09.218Z,2.20
2022-09-11T17:17:38.099Z,3.00
2022-09-11T17:20:09.409Z,0.80
2022-09-11T17:22:37.934Z,3.00
2022-09-11T17:25:07.862Z,1.60
2022-09-11T17:27:37.178Z,2.00
2022-09-11T17:30:05.907Z,2.00
2022-09-11T17:32:33.922Z,3.00
2022-09-11T17:35:02.115Z,2.00
2022-09-11T17:37:30.131Z,2.00
2022-09-11T17:39:58.948Z,1.60
2022-09-11T17:42:30.345Z,2.00
2022-09-11T17:44:58.336Z,1.40
2022-09-11T17:47:26.349Z,2.00
2022-09-11T17:49:54.334Z,1.80
2022-09-11T17:52:22.461Z,2.00
2022-09-11T17:54:50.605Z,1.80
2022-09-11T17:57:18.616Z,1.25
2022-09-11T17:59:50.439Z,1.00
2022-09-11T18:02:18.623Z,1.00
2022-09-11T18:04:48.262Z,2.00
2022-09-11T18:07:16.449Z,2.00
2022-09-11T18:09:44.502Z,2.00
2022-09-11T18:12:12.579Z,2.20
2022-09-11T18:14:43.005Z,2.00
2022-09-11T18:17:12.366Z,2.00
2022-09-11T18:19:40.727Z,2.00
2022-09-11T18:22:09.863Z,1.25
2022-09-11T18:24:39.785Z,3.00
2022-09-11T18:27:09.758Z,2.80
2022-09-11T18:29:39.969Z,2.00
2022-09-11T18:32:09.903Z,2.00
2022-09-11T18:34:39.588Z,2.00
2022-09-11T18:37:08.346Z,1.60
2022-09-11T18:39:37.231Z,2.20
2022-09-11T18:42:07.586Z,2.00
2022-09-11T18:44:35.589Z,3.00
2022-09-11T18:47:03.639Z,2.40
2022-09-11T18:49:31.625Z,2.00
2022-09-11T18:52:00.976Z,2.00
2022-09-11T18:54:30.073Z,1.00
2022-09-11T18:57:00.145Z,1.00
2022-09-11T18:59:28.509Z,1.40
2022-09-11T19:01:57.186Z,1.00
2022-09-11T19:04:26.071Z,2.00
2022-09-11T19:06:54.080Z,2.20
2022-09-11T19:09:23.416Z,2.00
2022-09-11T19:11:52.471Z,2.00
2022-09-11T19:14:21.123Z,2.40
2022-09-11T19:16:49.332Z,1.40
2022-09-11T19:19:17.325Z,1.25
2022-09-11T19:21:45.653Z,2.00
2022-09-11T19:24:13.639Z,1.00
2022-09-11T19:26:43.712Z,3.00
2022-09-11T19:29:13.300Z,2.00
2022-09-11T19:31:42.311Z,4.00
2022-09-11T19:34:12.866Z,2.00
2022-09-11T19:36:41.114Z,2.00
2022-09-11T19:39:09.112Z,2.50
2022-09-11T19:41:38.699Z,3.00
2022-09-11T19:44:08.670Z,2.00
2022-09-11T19:46:37.410Z,3.00
2022-09-11T19:49:05.756Z,3.00
2022-09-11T19:51:35.045Z,2.50
2022-09-11T19:54:03.713Z,2.00
2022-09-11T19:56:32.236Z,2.50
2022-09-11T19:59:00.492Z,3.00
2022-09-11T20:01:30.640Z,2.00
2022-09-11T20:04:00.612Z,2.40
2022-09-11T20:06:30.485Z,2.00
2022-09-11T20:09:26.928Z,3.00
2022-09-11T20:11:47.333Z,3.00
2022-09-11T20:14:15.316Z,1.20
2022-09-11T20:16:44.670Z,2.00
2022-09-11T20:19:14.857Z,2.00
2022-09-11T20:21:42.935Z,3.40
2022-09-11T20:24:10.914Z,3.00
2022-09-11T20:26:38.927Z,4.00
2022-09-11T20:29:07.919Z,2.00
2022-09-11T20:31:41.214Z,2.00
2022-09-11T20:34:15.883Z,3.00
2022-09-11T20:36:43.889Z,3.00
2022-09-11T20:39:12.337Z,2.33
2022-09-11T20:41:40.345Z,2.00
2022-09-11T20:44:08.346Z,3.00
2022-09-11T20:46:36.623Z,2.40
2022-09-11T20:49:05.478Z,2.00
2022-09-11T20:51:35.397Z,3.00
2022-09-11T20:54:03.554Z,2.00
2022-09-11T20:56:31.651Z,2.00
2022-09-11T20:59:00.688Z,2.60
2022-09-11T21:01:32.410Z,3.00
2022-09-11T21:04:00.694Z,3.00
2022-09-11T21:06:30.136Z,3.00
2022-09-11T21:09:00.298Z,3.00
2022-09-11T21:11:29.149Z,2.00
2022-09-11T21:13:57.136Z,3.00
2022-09-11T21:16:25.239Z,2.00
2022-09-11T21:18:54.485Z,3.00
2022-09-11T21:21:22.809Z,3.00
2022-09-11T21:23:54.194Z,2.60
2022-09-11T21:26:23.538Z,3.00
2022-09-11T21:28:51.547Z,3.00
2022-09-11T21:31:19.747Z,3.00
2022-09-11T21:33:47.785Z,3.00
2022-09-11T21:36:15.820Z,3.00
2022-09-11T21:38:43.798Z,2.00
2022-09-11T21:41:12.725Z,2.00
2022-09-11T21:43:42.067Z,3.00
2022-09-11T21:46:10.755Z,1.60
2022-09-11T21:48:39.397Z,2.50
2022-09-11T21:51:08.000Z,4.50
2022-09-11T21:53:35.996Z,3.00
2022-09-11T21:56:03.998Z,3.00
2022-09-11T21:58:31.986Z,2.00
2022-09-11T22:01:05.885Z,3.00
2022-09-11T22:03:34.522Z,3.00
2022-09-11T22:06:06.324Z,2.00
2022-09-11T22:08:35.334Z,2.00
2022-09-11T22:11:03.645Z,2.00
2022-09-11T22:13:31.678Z,3.00
2022-09-11T22:16:00.449Z,3.00
2022-09-11T22:18:29.855Z,3.00
2022-09-11T22:21:01.170Z,3.60
2022-09-11T22:23:29.838Z,3.00
2022-09-11T22:26:01.792Z,3.00
2022-09-11T22:28:29.944Z,2.00
2022-09-11T22:30:57.962Z,3.00
2022-09-11T22:33:26.076Z,3.00
2022-09-11T22:35:55.444Z,2.40
2022-09-11T22:38:23.912Z,4.00
2022-09-11T22:40:54.988Z,3.00
2022-09-11T22:43:22.976Z,2.80
2022-09-11T22:45:52.196Z,2.00
2022-09-11T22:48:20.189Z,3.00
2022-09-11T22:50:48.278Z,2.00
2022-09-11T22:53:17.619Z,2.50
2022-09-11T22:55:45.686Z,3.00
2022-09-11T22:58:13.753Z,3.00
2022-09-11T23:00:41.965Z,2.00
2022-09-11T23:03:09.953Z,3.00
2022-09-11T23:05:55.653Z,2.20
2022-09-11T23:08:29.283Z,2.00
2022-09-11T23:11:00.183Z,2.00
2022-09-11T23:13:28.319Z,2.50
2022-09-11T23:15:57.564Z,3.00
2022-09-11T23:18:25.933Z,2.00
2022-09-11T23:20:54.702Z,3.00
2022-09-11T23:23:24.085Z,3.00
2022-09-11T23:25:52.131Z,2.00
2022-09-11T23:28:20.155Z,3.00
2022-09-11T23:30:48.159Z,3.00
2022-09-11T23:33:16.188Z,3.00
2022-09-11T23:35:44.204Z,4.00
2022-09-11T23:38:12.182Z,3.00
2022-09-11T23:40:41.531Z,3.00
2022-09-11T23:43:09.654Z,4.00
2022-09-11T23:45:37.688Z,3.00
2022-09-11T23:48:05.701Z,3.00
2022-09-11T23:50:33.961Z,3.00
2022-09-11T23:53:01.947Z,3.00
2022-09-11T23:55:30.327Z,2.00
2022-09-11T23:58:01.007Z,3.00
